Time;durP1;ratioP1;P1;durP2;ratioP2;P2;SDS_P1;SDS_P2;PMS_P1;PMS_P2;Temp;Humidity;BMP_temperature;BMP_pressure;BME280_temperature;BME280_humidity;BME280_pressure;Samples;Min_cycle;Max_cycle;Signal;HPM_P1;HPM_P2
2024/02/18 00:02:02;;;;;;;3.85;1.45;;;;;;;;;;5023978;28;20049;-51
2024/02/18 00:04:30;;;;;;;8.88;2.42;;;;;;;;;;5023172;28;20069;-51
2024/02/18 00:06:57;;;;;;;5.57;2.15;;;;;;;;;;5024584;28;20404;-50
2024/02/18 00:09:23;;;;;;;5.38;2.30;;;;;;;;;;5019858;28;20061;-49
2024/02/18 00:11:50;;;;;;;6.30;1.90;;;;;;;;;;5026077;28;20041;-50
2024/02/18 00:14:16;;;;;;;3.80;1.63;;;;;;;;;;5023723;28;20466;-51
2024/02/18 00:16:43;;;;;;;5.95;2.38;;;;;;;;;;5023724;28;20132;-49
2024/02/18 00:19:09;;;;;;;5.28;2.20;;;;;;;;;;5024057;28;20057;-49
2024/02/18 00:21:37;;;;;;;6.53;2.50;;;;;;;;;;5022395;28;20061;-51
2024/02/18 00:24:04;;;;;;;7.25;2.63;;;;;;;;;;5024405;28;20072;-48
2024/02/18 00:26:30;;;;;;;4.13;2.10;;;;;;;;;;5021070;28;20710;-49
2024/02/18 00:29:15;;;;;;;4.75;2.13;;;;;;;;;;5017407;28;20042;-50
2024/02/18 00:31:42;;;;;;;9.10;2.13;;;;;;;;;;5024899;28;20096;-50
2024/02/18 00:34:08;;;;;;;4.88;2.00;;;;;;;;;;5022900;28;20124;-50
2024/02/18 00:36:36;;;;;;;3.95;2.05;;;;;;;;;;5006827;28;20056;-49
2024/02/18 00:39:03;;;;;;;5.03;1.75;;;;;;;;;;5005879;28;20438;-50
2024/02/18 00:41:29;;;;;;;7.00;2.03;;;;;;;;;;5023790;28;20085;-49
2024/02/18 00:43:56;;;;;;;5.43;2.28;;;;;;;;;;5021537;28;20092;-48
2024/02/18 00:46:24;;;;;;;4.68;1.90;;;;;;;;;;5021812;28;20077;-51
2024/02/18 00:49:10;;;;;;;7.07;1.98;;;;;;;;;;5019715;28;20053;-51
2024/02/18 00:51:36;;;;;;;8.82;2.00;;;;;;;;;;5003331;28;20672;-49
2024/02/18 00:54:03;;;;;;;13.63;3.10;;;;;;;;;;5020029;28;20434;-49
2024/02/18 00:56:29;;;;;;;5.60;1.90;;;;;;;;;;5022807;28;20050;-51
2024/02/18 00:58:56;;;;;;;4.68;2.03;;;;;;;;;;5020032;28;20049;-49
2024/02/18 01:01:22;;;;;;;4.93;1.90;;;;;;;;;;5023932;28;20112;-49
2024/02/18 01:03:49;;;;;;;4.70;1.75;;;;;;;;;;5022076;28;20657;-52
2024/02/18 01:06:15;;;;;;;13.30;2.25;;;;;;;;;;5021923;28;20042;-49
2024/02/18 01:08:42;;;;;;;3.10;1.73;;;;;;;;;;5019056;28;20512;-51
2024/02/18 01:11:09;;;;;;;3.63;1.40;;;;;;;;;;5027324;28;20069;-53
2024/02/18 01:13:35;;;;;;;7.80;2.03;;;;;;;;;;5018725;28;20041;-49
2024/02/18 01:16:02;;;;;;;3.50;1.95;;;;;;;;;;5021500;28;20049;-50
2024/02/18 01:18:28;;;;;;;4.60;1.65;;;;;;;;;;5023107;28;20072;-49
2024/02/18 01:20:55;;;;;;;4.65;1.70;;;;;;;;;;5019854;28;20682;-48
2024/02/18 01:23:21;;;;;;;5.05;1.70;;;;;;;;;;5019849;28;20607;-50
2024/02/18 01:25:48;;;;;;;7.30;1.73;;;;;;;;;;5024034;28;20670;-49
2024/02/18 01:28:14;;;;;;;3.25;2.05;;;;;;;;;;5022649;28;20053;-50
2024/02/18 01:30:41;;;;;;;4.05;1.83;;;;;;;;;;5021383;28;20551;-50
2024/02/18 01:33:07;;;;;;;3.60;1.50;;;;;;;;;;5022831;28;20053;-49
2024/02/18 01:35:34;;;;;;;7.38;1.65;;;;;;;;;;5021337;28;20052;-48
2024/02/18 01:38:00;;;;;;;6.25;1.48;;;;;;;;;;5006168;28;20520;-49
2024/02/18 01:40:26;;;;;;;5.20;2.85;;;;;;;;;;5021554;28;20155;-50
2024/02/18 01:42:53;;;;;;;5.10;1.60;;;;;;;;;;5028042;28;20107;-50
2024/02/18 01:45:19;;;;;;;2.78;1.30;;;;;;;;;;5024696;28;20053;-50
2024/02/18 01:47:47;;;;;;;5.05;1.92;;;;;;;;;;5024376;28;20523;-49
2024/02/18 01:50:13;;;;;;;4.13;1.70;;;;;;;;;;5021594;28;20492;-51
2024/02/18 01:52:42;;;;;;;4.53;1.85;;;;;;;;;;5021425;28;20069;-50
2024/02/18 01:55:09;;;;;;;5.80;1.45;;;;;;;;;;5016944;28;20681;-50
2024/02/18 01:57:36;;;;;;;1.90;1.27;;;;;;;;;;5025927;28;20515;-50
2024/02/18 02:00:03;;;;;;;7.05;1.70;;;;;;;;;;5020884;28;20045;-50
2024/02/18 02:02:30;;;;;;;6.13;1.42;;;;;;;;;;5021892;28;20096;-50
2024/02/18 02:04:57;;;;;;;4.50;1.35;;;;;;;;;;5017691;28;20983;-52
2024/02/18 02:07:23;;;;;;;6.32;1.65;;;;;;;;;;5024029;28;20411;-50
2024/02/18 02:09:50;;;;;;;6.00;1.88;;;;;;;;;;5020760;28;20500;-50
2024/02/18 02:12:16;;;;;;;3.40;1.08;;;;;;;;;;5022760;28;20041;-50
2024/02/18 02:14:43;;;;;;;5.95;1.58;;;;;;;;;;5019683;28;20041;-51
2024/02/18 02:17:14;;;;;;;3.72;1.13;;;;;;;;;;5030827;28;20098;-51
2024/02/18 02:19:40;;;;;;;5.68;1.35;;;;;;;;;;5024031;28;20045;-50
2024/02/18 02:22:07;;;;;;;3.83;1.30;;;;;;;;;;5018295;28;20056;-51
2024/02/18 02:24:34;;;;;;;1.95;0.90;;;;;;;;;;5022875;28;20457;-48
2024/02/18 02:27:01;;;;;;;4.13;1.10;;;;;;;;;;5022548;28;20566;-50
2024/02/18 02:29:27;;;;;;;7.40;1.85;;;;;;;;;;5023733;28;20595;-52
2024/02/18 02:31:55;;;;;;;3.95;1.13;;;;;;;;;;5020524;28;20048;-48
2024/02/18 02:34:24;;;;;;;4.05;1.23;;;;;;;;;;5024554;28;20128;-49
2024/02/18 02:36:50;;;;;;;3.63;1.20;;;;;;;;;;5024756;28;20467;-49
2024/02/18 02:39:17;;;;;;;3.85;1.00;;;;;;;;;;5023922;28;20096;-48
2024/02/18 02:41:43;;;;;;;4.85;1.50;;;;;;;;;;5027433;28;20061;-50
2024/02/18 02:44:11;;;;;;;4.15;1.20;;;;;;;;;;5028873;28;20057;-49
2024/02/18 02:46:38;;;;;;;6.15;1.50;;;;;;;;;;5023722;28;20140;-49
2024/02/18 02:49:04;;;;;;;6.53;1.00;;;;;;;;;;5031932;28;20049;-52
2024/02/18 02:51:31;;;;;;;4.95;1.33;;;;;;;;;;5025787;28;20496;-48
2024/02/18 02:53:57;;;;;;;2.88;1.02;;;;;;;;;;5024105;28;20115;-48
2024/02/18 02:56:24;;;;;;;3.47;1.10;;;;;;;;;;5020006;28;20057;-52
2024/02/18 02:58:50;;;;;;;5.90;1.40;;;;;;;;;;5027050;28;20077;-50
2024/02/18 03:01:17;;;;;;;3.97;1.00;;;;;;;;;;5021107;28;20045;-48
2024/02/18 03:03:43;;;;;;;9.60;2.17;;;;;;;;;;5023490;28;20485;-52
2024/02/18 03:06:10;;;;;;;3.20;1.05;;;;;;;;;;5022778;28;20331;-49
2024/02/18 03:08:36;;;;;;;6.25;1.27;;;;;;;;;;5030574;28;20045;-52
2024/02/18 03:11:03;;;;;;;4.63;1.48;;;;;;;;;;5023367;28;20136;-51
2024/02/18 03:13:32;;;;;;;6.43;1.42;;;;;;;;;;5024993;28;20053;-52
2024/02/18 03:15:59;;;;;;;6.53;0.93;;;;;;;;;;5017652;28;20070;-48
2024/02/18 03:18:26;;;;;;;5.32;1.27;;;;;;;;;;5022968;28;20045;-49
2024/02/18 03:20:52;;;;;;;6.60;1.50;;;;;;;;;;5022741;28;20061;-49
2024/02/18 03:23:19;;;;;;;7.00;1.15;;;;;;;;;;5019827;28;20161;-50
2024/02/18 03:25:45;;;;;;;6.25;1.52;;;;;;;;;;5027844;28;20108;-52
2024/02/18 03:28:12;;;;;;;8.82;1.60;;;;;;;;;;5031157;28;20168;-50
2024/02/18 03:30:38;;;;;;;8.27;1.58;;;;;;;;;;5027577;28;20115;-53
2024/02/18 03:33:05;;;;;;;4.70;1.95;;;;;;;;;;5024164;28;20049;-51
2024/02/18 03:35:32;;;;;;;7.35;1.55;;;;;;;;;;5024023;28;20060;-48
2024/02/18 03:37:58;;;;;;;4.28;1.17;;;;;;;;;;5025291;28;20045;-53
2024/02/18 03:40:25;;;;;;;5.32;1.00;;;;;;;;;;5024423;28;20076;-48
2024/02/18 03:42:51;;;;;;;5.75;1.30;;;;;;;;;;5026553;28;20077;-48
2024/02/18 03:45:18;;;;;;;5.82;1.60;;;;;;;;;;5022819;28;20416;-49
2024/02/18 03:47:44;;;;;;;5.93;1.40;;;;;;;;;;5026379;28;20057;-53
2024/02/18 03:50:14;;;;;;;8.98;1.40;;;;;;;;;;5027553;28;20046;-52
2024/02/18 03:52:44;;;;;;;5.78;1.60;;;;;;;;;;5011588;28;20643;-52
2024/02/18 03:55:11;;;;;;;3.33;1.17;;;;;;;;;;5022477;28;20515;-51
2024/02/18 03:57:38;;;;;;;3.83;0.90;;;;;;;;;;5024876;28;20060;-50
2024/02/18 04:00:09;;;;;;;11.00;1.60;;;;;;;;;;5021408;28;20109;-50
2024/02/18 04:02:38;;;;;;;5.00;1.70;;;;;;;;;;5023932;28;20072;-49
2024/02/18 04:05:09;;;;;;;8.18;2.78;;;;;;;;;;5007461;28;20068;-51
2024/02/18 04:07:36;;;;;;;6.25;1.20;;;;;;;;;;5023618;28;20460;-49
2024/02/18 04:10:03;;;;;;;5.53;1.92;;;;;;;;;;5022769;28;20050;-51
2024/02/18 04:12:30;;;;;;;9.48;1.48;;;;;;;;;;5021175;28;20065;-52
2024/02/18 04:14:56;;;;;;;5.53;1.38;;;;;;;;;;5023989;28;20060;-51
2024/02/18 04:17:26;;;;;;;7.03;1.40;;;;;;;;;;5023499;28;20052;-50
2024/02/18 04:19:52;;;;;;;5.80;1.52;;;;;;;;;;5021387;28;20045;-52
2024/02/18 04:22:19;;;;;;;7.88;1.38;;;;;;;;;;5023790;28;20049;-48
2024/02/18 04:24:45;;;;;;;6.82;1.30;;;;;;;;;;5022080;28;20808;-52
2024/02/18 04:27:12;;;;;;;3.35;1.45;;;;;;;;;;5021182;28;20060;-52
2024/02/18 04:29:39;;;;;;;9.15;1.63;;;;;;;;;;5027992;28;20088;-50
2024/02/18 04:32:06;;;;;;;5.65;1.70;;;;;;;;;;5023114;28;20132;-51
2024/02/18 04:34:32;;;;;;;6.32;1.58;;;;;;;;;;5023062;28;20128;-49
2024/02/18 04:36:59;;;;;;;4.18;1.10;;;;;;;;;;5024074;28;20045;-50
2024/02/18 04:39:25;;;;;;;7.68;1.70;;;;;;;;;;5021864;28;20048;-48
2024/02/18 04:41:52;;;;;;;5.28;1.67;;;;;;;;;;5023711;28;20050;-52
2024/02/18 04:44:18;;;;;;;10.55;1.80;;;;;;;;;;5021370;28;20077;-51
2024/02/18 04:46:44;;;;;;;7.18;2.45;;;;;;;;;;5024861;28;20105;-49
2024/02/18 04:49:11;;;;;;;5.65;1.42;;;;;;;;;;5027087;28;20043;-52
2024/02/18 04:51:38;;;;;;;3.95;1.40;;;;;;;;;;5026926;28;20471;-51
2024/02/18 04:54:04;;;;;;;6.38;2.00;;;;;;;;;;5020900;28;20140;-50
2024/02/18 04:56:30;;;;;;;5.60;1.38;;;;;;;;;;5014225;28;20062;-52
2024/02/18 04:58:57;;;;;;;3.25;1.48;;;;;;;;;;5026161;28;21334;-52
2024/02/18 05:01:23;;;;;;;8.50;1.70;;;;;;;;;;5025341;28;20081;-50
2024/02/18 05:03:50;;;;;;;5.45;1.70;;;;;;;;;;5025399;28;20068;-49
2024/02/18 05:06:16;;;;;;;6.18;1.50;;;;;;;;;;5021951;28;20045;-52
2024/02/18 05:08:43;;;;;;;6.03;1.40;;;;;;;;;;5021510;28;20057;-50
2024/02/18 05:11:09;;;;;;;7.15;1.83;;;;;;;;;;5023317;28;20073;-51
2024/02/18 05:13:36;;;;;;;8.75;1.63;;;;;;;;;;5008475;28;20099;-52
2024/02/18 05:16:02;;;;;;;5.07;2.00;;;;;;;;;;5022545;28;20109;-49
2024/02/18 05:18:29;;;;;;;8.02;1.60;;;;;;;;;;5022851;28;20049;-51
2024/02/18 05:20:55;;;;;;;6.03;1.60;;;;;;;;;;5020693;28;20141;-51
2024/02/18 05:23:22;;;;;;;6.72;1.73;;;;;;;;;;5024041;28;20049;-52
2024/02/18 05:25:48;;;;;;;8.18;2.75;;;;;;;;;;5023356;28;20077;-52
2024/02/18 05:28:15;;;;;;;5.93;1.50;;;;;;;;;;5020652;28;20049;-52
2024/02/18 05:30:41;;;;;;;10.50;2.30;;;;;;;;;;5021096;28;20141;-51
2024/02/18 05:33:07;;;;;;;5.72;1.88;;;;;;;;;;5019025;28;20041;-50
2024/02/18 05:35:34;;;;;;;4.78;1.75;;;;;;;;;;5023107;28;20045;-51
2024/02/18 05:38:01;;;;;;;7.28;2.05;;;;;;;;;;5018264;28;21712;-49
2024/02/18 05:40:27;;;;;;;9.10;2.25;;;;;;;;;;5020275;28;20054;-52
2024/02/18 05:42:53;;;;;;;6.47;1.80;;;;;;;;;;5023985;28;20489;-50
2024/02/18 05:45:22;;;;;;;7.18;1.45;;;;;;;;;;5021275;28;20049;-48
2024/02/18 05:47:48;;;;;;;3.72;1.27;;;;;;;;;;5021901;28;20431;-50
2024/02/18 05:50:15;;;;;;;4.63;1.70;;;;;;;;;;5024081;28;20053;-49
2024/02/18 05:52:41;;;;;;;9.90;2.05;;;;;;;;;;5021780;28;20077;-50
2024/02/18 05:55:08;;;;;;;4.90;1.65;;;;;;;;;;5023615;28;20045;-50
2024/02/18 05:57:34;;;;;;;9.02;1.90;;;;;;;;;;5020431;28;20147;-51
2024/02/18 06:00:01;;;;;;;6.05;2.25;;;;;;;;;;5022826;28;20499;-50
2024/02/18 06:02:27;;;;;;;8.45;1.80;;;;;;;;;;5020665;28;20503;-50
2024/02/18 06:04:54;;;;;;;5.78;1.98;;;;;;;;;;5020111;28;20057;-50
2024/02/18 06:07:20;;;;;;;7.53;1.45;;;;;;;;;;5023246;28;20423;-48
2024/02/18 06:09:47;;;;;;;6.78;1.60;;;;;;;;;;5021052;28;20077;-49
2024/02/18 06:12:14;;;;;;;8.95;1.98;;;;;;;;;;5017249;28;20486;-51
2024/02/18 06:14:40;;;;;;;5.30;1.58;;;;;;;;;;5017923;28;20110;-48
2024/02/18 06:17:08;;;;;;;4.90;1.70;;;;;;;;;;5023679;28;20049;-49
2024/02/18 06:19:34;;;;;;;7.53;1.75;;;;;;;;;;5019634;28;20084;-48
2024/02/18 06:22:01;;;;;;;5.93;1.65;;;;;;;;;;5022430;28;20129;-52
2024/02/18 06:24:28;;;;;;;5.28;1.30;;;;;;;;;;5017121;28;20045;-51
2024/02/18 06:26:55;;;;;;;7.40;1.85;;;;;;;;;;4998518;28;20060;-49
2024/02/18 06:29:21;;;;;;;6.18;1.65;;;;;;;;;;5021680;28;20041;-49
2024/02/18 06:31:49;;;;;;;3.58;1.48;;;;;;;;;;5018571;28;20113;-49
2024/02/18 06:34:15;;;;;;;9.57;2.63;;;;;;;;;;5022793;28;20463;-48
2024/02/18 06:36:42;;;;;;;9.13;1.80;;;;;;;;;;5023160;28;20057;-48
2024/02/18 06:39:09;;;;;;;5.88;1.58;;;;;;;;;;5022731;28;20060;-51
2024/02/18 06:41:35;;;;;;;3.35;1.30;;;;;;;;;;5018478;28;20045;-49
2024/02/18 06:44:02;;;;;;;9.55;2.17;;;;;;;;;;5017528;28;20133;-50
2024/02/18 06:46:28;;;;;;;7.07;2.00;;;;;;;;;;5022178;28;20057;-49
2024/02/18 06:48:54;;;;;;;5.68;1.95;;;;;;;;;;5006516;28;20061;-50
2024/02/18 06:51:21;;;;;;;6.63;1.80;;;;;;;;;;5018570;28;20138;-50
2024/02/18 06:53:48;;;;;;;8.45;1.67;;;;;;;;;;5015051;28;20076;-50
2024/02/18 06:56:18;;;;;;;8.23;2.38;;;;;;;;;;5017507;28;20095;-50
2024/02/18 06:58:44;;;;;;;7.53;1.75;;;;;;;;;;5015563;28;20057;-49
2024/02/18 07:01:13;;;;;;;7.15;2.10;;;;;;;;;;5014448;28;20467;-49
2024/02/18 07:03:39;;;;;;;5.40;1.83;;;;;;;;;;5004471;28;20566;-49
2024/02/18 07:06:06;;;;;;;6.57;1.75;;;;;;;;;;5022222;28;20052;-50
2024/02/18 07:08:32;;;;;;;11.40;2.10;;;;;;;;;;5020628;28;20096;-49
2024/02/18 07:10:59;;;;;;;5.90;1.60;;;;;;;;;;5020240;28;20515;-49
2024/02/18 07:13:25;;;;;;;6.70;1.67;;;;;;;;;;5019622;28;20048;-49
2024/02/18 07:15:52;;;;;;;3.50;1.55;;;;;;;;;;5019297;28;20046;-50
2024/02/18 07:18:18;;;;;;;8.38;1.65;;;;;;;;;;5022367;28;20132;-50
2024/02/18 07:20:45;;;;;;;5.90;1.92;;;;;;;;;;5022081;28;20087;-51
2024/02/18 07:23:11;;;;;;;5.47;1.58;;;;;;;;;;5008829;28;20053;-51
2024/02/18 07:25:40;;;;;;;5.90;1.90;;;;;;;;;;5025648;28;20099;-50
2024/02/18 07:28:06;;;;;;;7.85;1.85;;;;;;;;;;5025686;28;20068;-51
2024/02/18 07:30:33;;;;;;;6.45;1.55;;;;;;;;;;5023673;28;20595;-52
2024/02/18 07:33:01;;;;;;;7.28;2.03;;;;;;;;;;5023649;28;20572;-49
2024/02/18 07:35:28;;;;;;;13.13;1.70;;;;;;;;;;5032818;28;20053;-49
2024/02/18 07:37:57;;;;;;;7.50;1.67;;;;;;;;;;5027083;28;20049;-50
2024/02/18 07:40:24;;;;;;;7.15;1.60;;;;;;;;;;5024029;28;20124;-49
2024/02/18 07:42:50;;;;;;;5.40;1.70;;;;;;;;;;5024327;28;20164;-49
2024/02/18 07:45:18;;;;;;;6.75;1.40;;;;;;;;;;5026763;28;20484;-52
2024/02/18 07:47:44;;;;;;;5.70;1.70;;;;;;;;;;5021533;28;20130;-49
2024/02/18 07:50:11;;;;;;;7.82;1.38;;;;;;;;;;5021310;28;20116;-51
2024/02/18 07:52:37;;;;;;;7.28;2.38;;;;;;;;;;5017755;28;20045;-48
2024/02/18 07:55:04;;;;;;;7.45;2.08;;;;;;;;;;5025058;28;20738;-50
2024/02/18 07:57:31;;;;;;;7.32;1.73;;;;;;;;;;5021645;28;20570;-52
2024/02/18 07:59:57;;;;;;;7.47;1.92;;;;;;;;;;5028487;28;20591;-49
2024/02/18 08:02:24;;;;;;;4.15;2.00;;;;;;;;;;5022020;28;20168;-50
2024/02/18 08:04:50;;;;;;;9.88;2.45;;;;;;;;;;5024952;28;20049;-48
2024/02/18 08:07:17;;;;;;;6.30;1.50;;;;;;;;;;5026034;28;20054;-50
2024/02/18 08:09:44;;;;;;;7.65;1.95;;;;;;;;;;5025993;28;20053;-48
2024/02/18 08:12:10;;;;;;;8.45;2.22;;;;;;;;;;5022942;28;20053;-52
2024/02/18 08:14:36;;;;;;;4.97;1.42;;;;;;;;;;5021308;28;20566;-49
2024/02/18 08:17:03;;;;;;;7.45;2.60;;;;;;;;;;5024578;28;20057;-52
2024/02/18 08:19:31;;;;;;;6.07;1.85;;;;;;;;;;5024223;28;20046;-50
2024/02/18 08:21:58;;;;;;;10.23;2.15;;;;;;;;;;5026945;28;20080;-51
2024/02/18 08:24:24;;;;;;;6.05;1.42;;;;;;;;;;5019763;28;20037;-53
2024/02/18 08:26:51;;;;;;;6.20;1.60;;;;;;;;;;5018151;28;20042;-52
2024/02/18 08:29:17;;;;;;;5.28;1.40;;;;;;;;;;5027144;28;20767;-51
2024/02/18 08:31:44;;;;;;;6.03;1.80;;;;;;;;;;5022620;28;20911;-49
2024/02/18 08:34:11;;;;;;;3.63;1.33;;;;;;;;;;5025733;28;20049;-51
2024/02/18 08:36:38;;;;;;;3.20;1.67;;;;;;;;;;5022000;28;20049;-49
2024/02/18 08:39:05;;;;;;;5.50;1.42;;;;;;;;;;5023900;28;20060;-51
2024/02/18 08:41:31;;;;;;;7.18;1.52;;;;;;;;;;5018721;28;20060;-51
2024/02/18 08:43:58;;;;;;;3.25;1.42;;;;;;;;;;5022242;28;20045;-51
2024/02/18 08:46:24;;;;;;;6.05;1.80;;;;;;;;;;5020680;28;20868;-48
2024/02/18 08:48:51;;;;;;;9.48;1.98;;;;;;;;;;5024119;28;20115;-51
2024/02/18 08:51:17;;;;;;;4.47;1.85;;;;;;;;;;5023456;28;20050;-50
2024/02/18 08:53:44;;;;;;;6.03;2.15;;;;;;;;;;5003994;28;20108;-52
2024/02/18 08:56:10;;;;;;;7.15;1.80;;;;;;;;;;5023627;28;20045;-53
2024/02/18 08:58:37;;;;;;;4.43;1.52;;;;;;;;;;5024515;28;20057;-51
2024/02/18 09:01:04;;;;;;;5.22;1.65;;;;;;;;;;5023434;28;20046;-51
2024/02/18 09:03:33;;;;;;;6.65;1.20;;;;;;;;;;5021927;28;20045;-51
2024/02/18 09:06:00;;;;;;;8.77;1.95;;;;;;;;;;5021871;28;20072;-52
2024/02/18 09:08:26;;;;;;;7.65;1.80;;;;;;;;;;5028014;28;20156;-48
2024/02/18 09:10:54;;;;;;;4.93;1.42;;;;;;;;;;5017082;28;20060;-49
2024/02/18 09:13:21;;;;;;;7.45;2.25;;;;;;;;;;5020168;28;20042;-49
2024/02/18 09:15:48;;;;;;;2.92;1.23;;;;;;;;;;5020549;28;20050;-52
2024/02/18 09:18:14;;;;;;;4.68;1.35;;;;;;;;;;5024932;28;20567;-50
2024/02/18 09:20:41;;;;;;;7.47;1.90;;;;;;;;;;5022875;28;20041;-50
2024/02/18 09:23:07;;;;;;;4.32;1.48;;;;;;;;;;5021475;28;20125;-51
2024/02/18 09:25:34;;;;;;;5.75;1.60;;;;;;;;;;5023201;28;20049;-49
2024/02/18 09:28:00;;;;;;;9.40;1.80;;;;;;;;;;5023858;28;20085;-52
2024/02/18 09:30:27;;;;;;;4.82;1.33;;;;;;;;;;5020040;28;20144;-52
2024/02/18 09:32:53;;;;;;;4.88;1.83;;;;;;;;;;5003493;28;20048;-50
2024/02/18 09:35:20;;;;;;;8.25;1.88;;;;;;;;;;5023956;28;20116;-53
2024/02/18 09:37:47;;;;;;;4.65;1.33;;;;;;;;;;5021899;28;20085;-52
2024/02/18 09:40:13;;;;;;;4.78;1.55;;;;;;;;;;5022824;28;20132;-50
2024/02/18 09:42:41;;;;;;;5.88;1.40;;;;;;;;;;5022419;28;20050;-52
2024/02/18 09:45:11;;;;;;;4.15;0.95;;;;;;;;;;5027059;28;20127;-51
2024/02/18 09:47:42;;;;;;;2.75;0.80;;;;;;;;;;5018977;28;20049;-51
2024/02/18 09:50:11;;;;;;;3.83;1.10;;;;;;;;;;5022648;28;20045;-52
2024/02/18 09:52:42;;;;;;;5.70;1.52;;;;;;;;;;5020646;28;20049;-50
2024/02/18 09:55:10;;;;;;;7.20;1.83;;;;;;;;;;5025727;28;20518;-48
2024/02/18 09:57:38;;;;;;;7.00;1.50;;;;;;;;;;5007442;28;20440;-50
2024/02/18 10:00:06;;;;;;;7.05;1.65;;;;;;;;;;5019847;28;20072;-51
2024/02/18 10:02:33;;;;;;;4.63;1.40;;;;;;;;;;5021345;28;20393;-50
2024/02/18 10:04:59;;;;;;;6.28;1.55;;;;;;;;;;5025161;28;20093;-50
2024/02/18 10:07:26;;;;;;;2.28;0.80;;;;;;;;;;5023319;28;20172;-50
2024/02/18 10:09:53;;;;;;;3.83;1.00;;;;;;;;;;5020964;28;20057;-50
2024/02/18 10:12:20;;;;;;;5.57;1.70;;;;;;;;;;5023065;28;20175;-51
2024/02/18 10:14:56;;;;;;;2.42;1.40;;;;;;;;;;5022514;28;20108;-50
2024/02/18 10:17:24;;;;;;;4.80;1.30;;;;;;;;;;5021525;28;20099;-49
2024/02/18 10:19:50;;;;;;;3.05;1.38;;;;;;;;;;5023501;28;20060;-53
2024/02/18 10:22:17;;;;;;;5.97;1.98;;;;;;;;;;5021804;28;20503;-51
2024/02/18 10:24:43;;;;;;;6.35;1.60;;;;;;;;;;5017700;28;20146;-51
2024/02/18 10:27:10;;;;;;;4.35;1.20;;;;;;;;;;5002103;28;20143;-50
2024/02/18 10:29:37;;;;;;;7.22;1.25;;;;;;;;;;5015954;28;20132;-51
2024/02/18 10:32:03;;;;;;;3.30;1.50;;;;;;;;;;5022738;28;20053;-51
2024/02/18 10:34:30;;;;;;;2.55;1.17;;;;;;;;;;5020808;28;20046;-49
2024/02/18 10:37:00;;;;;;;3.88;1.30;;;;;;;;;;5026395;28;20151;-49
2024/02/18 10:39:28;;;;;;;3.78;1.15;;;;;;;;;;5017806;28;20884;-49
2024/02/18 10:42:00;;;;;;;2.42;0.98;;;;;;;;;;5020854;28;20045;-50
2024/02/18 10:44:26;;;;;;;2.55;1.10;;;;;;;;;;5019827;28;20933;-51
2024/02/18 10:46:54;;;;;;;2.35;0.90;;;;;;;;;;5019792;28;20099;-51
2024/02/18 10:49:27;;;;;;;3.08;0.90;;;;;;;;;;5025732;28;20144;-49
2024/02/18 10:52:01;;;;;;;2.75;0.80;;;;;;;;;;5024434;28;20034;-49
2024/02/18 10:54:34;;;;;;;2.55;0.90;;;;;;;;;;5020094;28;20049;-50
2024/02/18 10:57:01;;;;;;;1.42;0.80;;;;;;;;;;5023754;28;20053;-49
2024/02/18 10:59:34;;;;;;;2.58;0.80;;;;;;;;;;5026960;28;20187;-51
2024/02/18 11:02:05;;;;;;;2.45;0.88;;;;;;;;;;5025103;28;20100;-49
2024/02/18 11:04:31;;;;;;;1.13;0.70;;;;;;;;;;5023300;28;20049;-51
2024/02/18 11:06:58;;;;;;;2.30;1.10;;;;;;;;;;5024774;28;20531;-53
2024/02/18 11:09:25;;;;;;;2.58;1.23;;;;;;;;;;5019312;28;20080;-54
2024/02/18 11:11:52;;;;;;;3.55;1.20;;;;;;;;;;5025458;28;20049;-52
2024/02/18 11:14:19;;;;;;;2.42;1.40;;;;;;;;;;5019373;28;20065;-54
2024/02/18 11:16:47;;;;;;;3.10;1.30;;;;;;;;;;5024281;28;20069;-51
2024/02/18 11:19:14;;;;;;;4.57;1.30;;;;;;;;;;5023992;28;20127;-53
2024/02/18 11:21:41;;;;;;;1.60;0.88;;;;;;;;;;5023839;28;20045;-50
2024/02/18 11:24:08;;;;;;;2.03;1.05;;;;;;;;;;5021203;28;20584;-52
2024/02/18 11:26:34;;;;;;;3.47;1.17;;;;;;;;;;5018029;28;20171;-50
2024/02/18 11:29:02;;;;;;;2.35;1.17;;;;;;;;;;5024639;28;20056;-52
2024/02/18 11:31:30;;;;;;;2.15;0.93;;;;;;;;;;5021276;28;20081;-52
2024/02/18 11:33:56;;;;;;;1.85;0.93;;;;;;;;;;5025219;28;20443;-52
2024/02/18 11:36:24;;;;;;;2.08;0.90;;;;;;;;;;5020563;28;20128;-48
2024/02/18 11:38:52;;;;;;;2.08;1.00;;;;;;;;;;5028802;28;20053;-52
2024/02/18 11:41:20;;;;;;;2.00;0.90;;;;;;;;;;5024138;28;20132;-51
2024/02/18 11:43:53;;;;;;;2.05;1.00;;;;;;;;;;5029925;28;20057;-50
2024/02/18 11:46:22;;;;;;;4.07;0.80;;;;;;;;;;5019495;28;20840;-53
2024/02/18 11:48:49;;;;;;;5.88;1.73;;;;;;;;;;5008804;28;20492;-53
2024/02/18 11:51:15;;;;;;;2.17;1.00;;;;;;;;;;5022214;28;20052;-52
2024/02/18 11:53:42;;;;;;;2.50;0.80;;;;;;;;;;5020597;28;20668;-50
2024/02/18 11:56:10;;;;;;;1.55;0.80;;;;;;;;;;5023008;28;20049;-51
2024/02/18 11:58:36;;;;;;;2.17;1.10;;;;;;;;;;5017273;28;20509;-48
2024/02/18 12:01:05;;;;;;;1.88;1.00;;;;;;;;;;5025923;28;20060;-51
2024/02/18 12:03:33;;;;;;;2.53;1.05;;;;;;;;;;5027918;28;20045;-52
2024/02/18 12:06:01;;;;;;;4.85;1.20;;;;;;;;;;5021623;28;20050;-49
2024/02/18 12:08:28;;;;;;;4.72;1.30;;;;;;;;;;5019186;28;20173;-52
2024/02/18 12:10:54;;;;;;;3.03;0.95;;;;;;;;;;5025283;28;20515;-50
2024/02/18 12:13:24;;;;;;;1.90;1.02;;;;;;;;;;5019649;28;20038;-50
2024/02/18 12:15:51;;;;;;;3.30;1.20;;;;;;;;;;5020625;28;20053;-51
2024/02/18 12:18:19;;;;;;;2.58;1.00;;;;;;;;;;5021520;28;20060;-51
2024/02/18 12:20:50;;;;;;;1.65;1.02;;;;;;;;;;5025119;28;20051;-51
2024/02/18 12:23:18;;;;;;;2.03;0.77;;;;;;;;;;5028631;28;20072;-49
2024/02/18 12:25:44;;;;;;;2.03;0.80;;;;;;;;;;5023196;28;20129;-51
2024/02/18 12:28:11;;;;;;;3.35;1.02;;;;;;;;;;5023611;28;20205;-51
2024/02/18 12:30:38;;;;;;;2.45;0.63;;;;;;;;;;5028029;28;20059;-52
2024/02/18 12:33:04;;;;;;;3.40;0.90;;;;;;;;;;5025014;28;20052;-52
2024/02/18 12:35:34;;;;;;;2.03;1.00;;;;;;;;;;5024690;28;20488;-51
2024/02/18 12:38:02;;;;;;;2.80;1.35;;;;;;;;;;5022276;28;20169;-52
2024/02/18 12:40:29;;;;;;;2.08;0.90;;;;;;;;;;5022830;28;20057;-50
2024/02/18 12:43:00;;;;;;;1.95;1.00;;;;;;;;;;5022247;28;20041;-53
2024/02/18 12:45:47;;;;;;;2.58;0.90;;;;;;;;;;5020000;28;20057;-50
2024/02/18 12:48:22;;;;;;;4.13;0.85;;;;;;;;;;5020095;28;20049;-53
2024/02/18 12:51:06;;;;;;;1.90;0.80;;;;;;;;;;5023680;28;20472;-52
2024/02/18 12:53:34;;;;;;;2.15;0.80;;;;;;;;;;5021817;28;20068;-52
2024/02/18 12:56:01;;;;;;;1.88;0.70;;;;;;;;;;5020319;28;20056;-51
2024/02/18 12:58:27;;;;;;;1.77;0.80;;;;;;;;;;5026456;28;20045;-52
2024/02/18 13:00:54;;;;;;;2.03;0.90;;;;;;;;;;5022338;28;20164;-51
2024/02/18 13:03:20;;;;;;;1.05;0.75;;;;;;;;;;5024514;28;20133;-53
2024/02/18 13:05:48;;;;;;;1.60;0.70;;;;;;;;;;5025848;28;20053;-50
2024/02/18 13:08:15;;;;;;;1.95;0.77;;;;;;;;;;5020977;28;20125;-52
2024/02/18 13:10:41;;;;;;;0.88;0.60;;;;;;;;;;5023919;28;20049;-53
2024/02/18 13:13:08;;;;;;;2.05;0.73;;;;;;;;;;5019686;28;20045;-49
2024/02/18 13:15:35;;;;;;;1.05;0.70;;;;;;;;;;5023714;28;20049;-50
2024/02/18 13:18:01;;;;;;;0.95;0.63;;;;;;;;;;5020853;28;20041;-52
2024/02/18 13:20:28;;;;;;;1.52;0.40;;;;;;;;;;5023595;28;20124;-51
2024/02/18 13:22:56;;;;;;;1.50;0.40;;;;;;;;;;5021665;28;20090;-48
2024/02/18 13:25:23;;;;;;;1.20;0.40;;;;;;;;;;5021727;28;20463;-49
2024/02/18 13:27:49;;;;;;;0.98;0.40;;;;;;;;;;5020733;28;20061;-50
2024/02/18 13:30:17;;;;;;;1.13;0.47;;;;;;;;;;5028255;28;20503;-49
2024/02/18 13:32:48;;;;;;;1.00;0.47;;;;;;;;;;5023290;28;20149;-50
2024/02/18 13:35:15;;;;;;;1.58;0.50;;;;;;;;;;5021016;28;20112;-50
2024/02/18 13:37:41;;;;;;;1.95;0.60;;;;;;;;;;5024113;28;20077;-50
2024/02/18 13:40:08;;;;;;;2.80;0.85;;;;;;;;;;5019182;28;20073;-50
2024/02/18 13:42:35;;;;;;;1.75;0.45;;;;;;;;;;5021292;28;20539;-50
2024/02/18 13:45:01;;;;;;;2.22;0.70;;;;;;;;;;5024003;28;20500;-48
2024/02/18 13:47:28;;;;;;;1.60;0.52;;;;;;;;;;5020560;28;20077;-50
2024/02/18 13:49:57;;;;;;;1.90;0.43;;;;;;;;;;5025176;28;20049;-48
2024/02/18 13:52:25;;;;;;;1.42;0.38;;;;;;;;;;5021309;28;20140;-50
2024/02/18 13:54:52;;;;;;;3.67;0.80;;;;;;;;;;5021832;28;20049;-49
2024/02/18 13:57:18;;;;;;;2.03;0.60;;;;;;;;;;5021001;28;20049;-48
2024/02/18 13:59:45;;;;;;;3.25;0.63;;;;;;;;;;5023028;28;20120;-50
2024/02/18 14:02:11;;;;;;;2.13;0.65;;;;;;;;;;5021000;28;20158;-49
2024/02/18 14:04:38;;;;;;;1.00;0.40;;;;;;;;;;5024110;28;20080;-49
2024/02/18 14:07:06;;;;;;;3.55;0.60;;;;;;;;;;5020826;28;20058;-51
2024/02/18 14:09:33;;;;;;;2.35;0.63;;;;;;;;;;5016923;28;20045;-50
2024/02/18 14:12:00;;;;;;;2.33;0.60;;;;;;;;;;5022239;28;20530;-49
2024/02/18 14:14:27;;;;;;;1.02;0.40;;;;;;;;;;5023859;28;20053;-49
2024/02/18 14:16:53;;;;;;;2.67;0.57;;;;;;;;;;5016829;28;20049;-49
2024/02/18 14:19:20;;;;;;;5.97;0.50;;;;;;;;;;5020525;28;20437;-49
2024/02/18 14:21:47;;;;;;;6.97;1.08;;;;;;;;;;5021668;28;20060;-49
2024/02/18 14:24:16;;;;;;;2.15;0.80;;;;;;;;;;5019109;28;20049;-50
2024/02/18 14:26:42;;;;;;;3.47;0.75;;;;;;;;;;5022853;28;20496;-49
2024/02/18 14:29:09;;;;;;;4.18;0.60;;;;;;;;;;5021704;28;20045;-49
2024/02/18 14:31:36;;;;;;;6.13;0.80;;;;;;;;;;5018499;28;20041;-48
2024/02/18 14:34:02;;;;;;;4.03;0.77;;;;;;;;;;5022326;28;20660;-52
2024/02/18 14:36:29;;;;;;;3.05;0.73;;;;;;;;;;5020098;28;20401;-50
2024/02/18 14:38:56;;;;;;;9.68;1.30;;;;;;;;;;5022370;28;20049;-49
2024/02/18 14:41:23;;;;;;;10.80;1.55;;;;;;;;;;5020555;28;20539;-52
2024/02/18 14:43:49;;;;;;;5.78;1.50;;;;;;;;;;5021890;28;20055;-51